Time;durP1;ratioP1;P1;durP2;ratioP2;P2;SDS_P1;SDS_P2;PMS_P1;PMS_P2;Temp;Humidity;BMP_temperature;BMP_pressure;BME280_temperature;BME280_humidity;BME280_pressure;Samples;Min_cycle;Max_cycle;Signal;HPM_P1;HPM_P2
2023/01/06 00:02:15;;;;;;;2.53;0.90;;;;;;;10.83;59.78;100078.41;4319134;33;20125;-87
2023/01/06 00:04:41;;;;;;;2.00;0.65;;;;;;;10.89;59.78;100085.22;4307775;33;20143;-86
2023/01/06 00:07:06;;;;;;;3.58;1.08;;;;;;;10.87;59.78;100082.62;4311605;33;20110;-87
2023/01/06 00:09:33;;;;;;;3.58;0.73;;;;;;;10.82;59.78;100094.06;4320010;33;20114;-87
2023/01/06 00:11:58;;;;;;;3.37;1.00;;;;;;;10.69;59.78;100099.62;4308965;33;20212;-85
2023/01/06 00:14:24;;;;;;;1.48;0.60;;;;;;;10.69;59.76;100106.59;4299235;33;20152;-86
2023/01/06 00:16:49;;;;;;;2.58;0.50;;;;;;;10.69;59.78;100115.25;4318058;33;20155;-87
2023/01/06 00:19:15;;;;;;;2.83;0.60;;;;;;;10.84;59.77;100108.75;4299283;33;20155;-86
2023/01/06 00:21:41;;;;;;;2.53;0.50;;;;;;;10.80;59.78;100098.47;4320100;33;20170;-87
2023/01/06 00:24:07;;;;;;;2.28;0.52;;;;;;;10.80;59.78;100106.28;4320208;33;20095;-87
2023/01/06 00:26:33;;;;;;;1.73;0.60;;;;;;;10.72;59.77;100102.16;4306218;33;20150;-87
2023/01/06 00:28:58;;;;;;;1.20;0.70;;;;;;;10.69;59.76;100093.56;4301747;33;20179;-84
2023/01/06 00:31:24;;;;;;;1.98;0.70;;;;;;;10.60;59.76;100097.25;4312454;33;20209;-87
2023/01/06 00:33:49;;;;;;;1.98;0.60;;;;;;;10.75;59.77;100094.25;4310923;33;20119;-89
2023/01/06 00:36:14;;;;;;;6.20;0.62;;;;;;;10.80;59.78;100103.69;4303492;33;20131;-87
2023/01/06 00:38:40;;;;;;;2.90;0.62;;;;;;;10.75;59.77;100117.69;4311000;33;20095;-87
2023/01/06 00:42:02;;;;;;;4.22;1.00;;;;;;;10.83;59.78;100121.81;4315611;33;20120;-87
2023/01/06 00:43:52;;;;;;;3.22;0.60;;;;;;;10.89;59.78;100122.53;4324120;33;20129;-87
2023/01/06 00:46:17;;;;;;;3.70;0.98;;;;;;;10.87;59.78;100132.09;4322305;33;20121;-88
2023/01/06 00:48:43;;;;;;;2.70;0.62;;;;;;;10.88;59.78;100131.19;4322228;33;20155;-88
2023/01/06 00:51:08;;;;;;;2.00;0.80;;;;;;;10.92;59.79;100126.78;4312774;33;20138;-88
2023/01/06 00:53:34;;;;;;;3.50;1.05;;;;;;;11.00;59.79;100132.63;4322505;33;20160;-88
2023/01/06 00:56:00;;;;;;;3.50;0.60;;;;;;;10.84;59.77;100132.19;4321715;33;20092;-86
2023/01/06 00:58:29;;;;;;;3.20;0.80;;;;;;;10.79;59.78;100135.81;4315380;33;20104;-88
2023/01/06 01:00:54;;;;;;;4.37;0.93;;;;;;;10.66;59.77;100135.31;4331281;33;20167;-86
2023/01/06 01:03:20;;;;;;;3.45;0.62;;;;;;;10.75;59.77;100143.72;4314340;33;20536;-87
2023/01/06 01:05:45;;;;;;;3.35;0.80;;;;;;;10.48;59.76;100139.22;4307439;33;20179;-87
2023/01/06 01:08:11;;;;;;;3.78;0.68;;;;;;;10.59;59.76;100152.81;4316208;33;20147;-86
2023/01/06 01:10:36;;;;;;;2.12;0.90;;;;;;;10.67;59.76;100158.69;4318771;33;20150;-86
2023/01/06 01:13:02;;;;;;;5.37;1.35;;;;;;;10.75;59.77;100150.69;4315038;33;20175;-88
2023/01/06 01:15:27;;;;;;;2.62;0.93;;;;;;;10.74;59.77;100152.44;4321754;33;20096;-87
2023/01/06 01:17:52;;;;;;;2.70;0.60;;;;;;;10.82;59.77;100160.03;4322138;33;20135;-87
2023/01/06 01:20:18;;;;;;;2.30;0.85;;;;;;;10.83;59.78;100163.47;4309496;33;20116;-88
2023/01/06 01:22:43;;;;;;;4.10;0.80;;;;;;;10.92;59.77;100168.47;4322108;33;20118;-85
2023/01/06 01:25:09;;;;;;;2.80;0.77;;;;;;;10.98;59.78;100174.34;4309202;33;20122;-86
2023/01/06 01:27:34;;;;;;;4.95;1.08;;;;;;;10.92;59.79;100171.94;4303547;33;20135;-88
2023/01/06 01:29:59;;;;;;;2.67;0.80;;;;;;;10.94;59.79;100177.94;4311662;33;20138;-88
2023/01/06 01:32:25;;;;;;;1.65;0.70;;;;;;;10.99;59.79;100188.22;4319585;33;20111;-86
2023/01/06 01:34:50;;;;;;;3.20;0.85;;;;;;;11.02;59.79;100190.75;4305108;33;20136;-88
2023/01/06 01:37:16;;;;;;;1.98;0.70;;;;;;;11.02;59.79;100193.34;4321755;33;20167;-88
2023/01/06 01:39:41;;;;;;;2.42;0.70;;;;;;;11.15;59.79;100183.47;4320507;33;20108;-89
2023/01/06 01:42:14;;;;;;;1.60;0.57;;;;;;;11.10;59.79;100180.13;4322285;33;20174;-88
2023/01/06 01:44:53;;;;;;;3.30;1.12;;;;;;;11.32;59.81;100183.84;4320521;33;20088;-88
2023/01/06 01:47:25;;;;;;;3.03;0.80;;;;;;;11.42;59.80;100177.50;4327456;33;20182;-88
2023/01/06 01:49:52;;;;;;;2.92;0.88;;;;;;;11.28;59.80;100180.47;4334072;33;20115;-88
2023/01/06 01:52:18;;;;;;;5.45;0.80;;;;;;;11.23;59.80;100190.16;4331612;33;20481;-88
2023/01/06 01:54:43;;;;;;;3.28;1.20;;;;;;;11.10;59.79;100188.78;4319278;33;20126;-88
2023/01/06 01:57:11;;;;;;;3.62;1.48;;;;;;;11.07;59.79;100186.28;4318688;33;20153;-87
2023/01/06 01:59:36;;;;;;;4.25;0.82;;;;;;;11.05;59.79;100185.47;4309378;33;20112;-86
2023/01/06 02:02:02;;;;;;;2.05;0.70;;;;;;;11.07;59.79;100194.09;4321676;33;20504;-87
2023/01/06 02:04:27;;;;;;;2.55;0.98;;;;;;;10.89;59.78;100203.25;4321139;33;20147;-87
2023/01/06 02:06:53;;;;;;;4.05;0.93;;;;;;;10.73;59.77;100194.97;4318926;33;20150;-87
2023/01/06 02:09:22;;;;;;;4.30;1.05;;;;;;;10.60;59.76;100192.72;4309090;33;20473;-86
2023/01/06 02:11:50;;;;;;;3.53;1.00;;;;;;;10.76;59.77;100200.09;4314246;33;20060;-88
2023/01/06 02:14:23;;;;;;;1.92;1.00;;;;;;;10.64;59.77;100197.78;4316563;33;20175;-88
2023/01/06 02:17:07;;;;;;;3.42;0.95;;;;;;;10.68;59.77;100204.66;4305877;33;20123;-87
2023/01/06 02:19:55;;;;;;;7.07;1.00;;;;;;;10.80;59.78;100210.44;4333996;33;20469;-86
2023/01/06 02:22:40;;;;;;;4.00;0.80;;;;;;;10.88;59.78;100209.34;4333465;33;20469;-88
2023/01/06 02:25:36;;;;;;;4.30;1.37;;;;;;;10.94;59.79;100208.34;4323554;33;20852;-87
2023/01/06 02:28:20;;;;;;;1.98;0.85;;;;;;;10.76;59.77;100210.53;4324410;33;20092;-87
2023/01/06 02:31:11;;;;;;;3.65;1.20;;;;;;;10.91;59.78;100214.50;4332796;33;20108;-87
2023/01/06 02:33:42;;;;;;;3.33;0.90;;;;;;;10.78;59.78;100213.09;4331883;33;20172;-87
2023/01/06 02:36:40;;;;;;;4.05;1.02;;;;;;;10.98;59.78;100208.22;4312124;33;20092;-86
2023/01/06 02:39:25;;;;;;;2.33;0.80;;;;;;;10.84;59.77;100210.31;4318396;33;20084;-86
2023/01/06 02:42:17;;;;;;;2.37;0.80;;;;;;;10.89;59.78;100213.69;4307252;33;20108;-87
2023/01/06 02:45:16;;;;;;;3.92;1.10;;;;;;;10.76;59.77;100214.88;4313696;33;20547;-86
2023/01/06 02:48:00;;;;;;;2.85;0.75;;;;;;;10.80;59.78;100213.03;4320371;33;20095;-87
2023/01/06 02:50:41;;;;;;;3.42;1.20;;;;;;;10.77;59.78;100201.81;4332916;33;20096;-87
2023/01/06 02:53:24;;;;;;;1.70;0.90;;;;;;;10.69;59.77;100210.72;4309059;33;20103;-88
2023/01/06 02:55:54;;;;;;;3.03;0.80;;;;;;;10.77;59.78;100211.38;4332536;33;20112;-88
2023/01/06 02:58:32;;;;;;;2.37;0.90;;;;;;;10.80;59.78;100219.09;4306394;33;20103;-87
2023/01/06 03:01:21;;;;;;;4.57;1.02;;;;;;;10.69;59.77;100221.13;4304192;33;20088;-87
2023/01/06 03:03:46;;;;;;;1.83;0.85;;;;;;;10.72;59.77;100229.72;4306128;33;20131;-86
2023/01/06 03:06:14;;;;;;;3.33;1.20;;;;;;;10.87;59.78;100238.88;4320735;33;20155;-87
2023/01/06 03:08:40;;;;;;;5.35;1.20;;;;;;;10.86;59.78;100241.53;4317952;33;20823;-87
2023/01/06 03:11:05;;;;;;;3.47;0.82;;;;;;;10.92;59.79;100238.78;4311077;33;20107;-86
2023/01/06 03:13:49;;;;;;;4.75;0.95;;;;;;;10.99;59.79;100242.94;4320470;33;20764;-87
2023/01/06 03:16:15;;;;;;;5.00;1.77;;;;;;;10.93;59.79;100249.16;4320922;33;20119;-86
2023/01/06 03:18:41;;;;;;;2.47;0.80;;;;;;;10.84;59.77;100244.16;4317470;33;20158;-87
2023/01/06 03:21:18;;;;;;;5.57;1.62;;;;;;;10.69;59.77;100244.56;4299220;33;20751;-85
2023/01/06 03:23:43;;;;;;;2.25;1.00;;;;;;;10.65;59.77;100245.53;4305250;33;20132;-87
2023/01/06 03:26:08;;;;;;;5.53;1.30;;;;;;;10.61;59.76;100252.53;4319437;33;20119;-88
2023/01/06 03:28:34;;;;;;;2.22;0.93;;;;;;;10.58;59.77;100252.62;4320220;33;20358;-86
2023/01/06 03:31:10;;;;;;;2.65;1.02;;;;;;;10.60;59.76;100242.16;4313291;33;20103;-86
2023/01/06 03:33:38;;;;;;;2.78;0.98;;;;;;;10.62;59.76;100241.25;4312490;33;20124;-87
2023/01/06 03:36:22;;;;;;;5.03;1.10;;;;;;;10.73;59.77;100241.84;4332335;33;20754;-86
2023/01/06 03:39:02;;;;;;;2.03;0.70;;;;;;;10.59;59.76;100237.84;4324071;33;20488;-87
2023/01/06 03:44:21;;;;;;;2.42;0.70;;;;;;;10.43;59.76;100234.78;4322554;33;20765;-87
2023/01/06 03:46:52;;;;;;;3.37;1.40;;;;;;;10.42;59.76;100235.69;4320049;33;20126;-87
2023/01/06 03:49:18;;;;;;;4.18;0.77;;;;;;;10.35;59.75;100239.28;4317729;33;20508;-87
2023/01/06 03:51:50;;;;;;;5.32;1.67;;;;;;;10.22;59.74;100235.28;4310734;33;20111;-87
2023/01/06 03:54:34;;;;;;;4.25;1.30;;;;;;;10.19;59.75;100243.13;4333083;33;20187;-87
2023/01/06 03:57:13;;;;;;;7.35;1.40;;;;;;;10.13;59.74;100242.34;4324837;33;20190;-88
2023/01/06 03:59:44;;;;;;;2.60;1.47;;;;;;;10.19;59.74;100249.19;4308283;33;20117;-89
2023/01/06 04:02:10;;;;;;;3.65;1.00;;;;;;;10.13;59.74;100249.28;4315560;33;20067;-88
2023/01/06 04:04:35;;;;;;;3.22;1.20;;;;;;;10.01;59.73;100254.78;4321211;33;20179;-88
2023/01/06 04:07:01;;;;;;;3.78;1.35;;;;;;;10.13;59.74;100255.34;4318431;33;20176;-87
2023/01/06 04:09:26;;;;;;;4.65;1.35;;;;;;;10.20;59.74;100268.25;4308871;33;20474;-88
2023/01/06 04:14:36;;;;;;;3.83;1.30;;;;;;;10.29;59.75;100284.53;4322871;33;20488;-88
2023/01/06 04:17:02;;;;;;;4.53;1.40;;;;;;;10.29;59.75;100289.75;4320792;33;20128;-87
2023/01/06 04:19:27;;;;;;;2.47;1.00;;;;;;;10.40;59.76;100290.34;4320299;33;20107;-86
2023/01/06 04:21:52;;;;;;;6.03;1.40;;;;;;;10.47;59.76;100291.06;4317988;33;20169;-88
2023/01/06 04:24:18;;;;;;;2.25;0.95;;;;;;;10.43;59.76;100292.03;4301000;33;20115;-89
2023/01/06 04:26:43;;;;;;;3.08;1.10;;;;;;;10.49;59.76;100286.69;4320078;33;20378;-87
2023/01/06 04:29:09;;;;;;;4.82;1.45;;;;;;;10.55;59.76;100280.47;4318443;33;20162;-88
2023/01/06 04:31:34;;;;;;;2.47;1.25;;;;;;;10.50;59.76;100291.00;4309815;33;20121;-88
2023/01/06 04:33:59;;;;;;;2.87;1.40;;;;;;;10.55;59.76;100283.94;4314853;33;20577;-86
2023/01/06 04:36:25;;;;;;;3.25;1.20;;;;;;;10.58;59.77;100285.59;4303282;33;20422;-87
2023/01/06 04:38:50;;;;;;;5.07;1.50;;;;;;;10.46;59.75;100278.97;4298673;33;20104;-88
2023/01/06 04:41:16;;;;;;;5.12;1.85;;;;;;;10.31;59.75;100281.91;4320015;33;20132;-87
2023/01/06 04:43:41;;;;;;;3.28;1.30;;;;;;;10.30;59.75;100270.63;4314465;33;20104;-86
2023/01/06 04:46:07;;;;;;;2.33;1.10;;;;;;;10.45;59.76;100275.50;4303963;33;20207;-89
2023/01/06 04:48:32;;;;;;;4.32;1.50;;;;;;;10.48;59.76;100274.56;4293781;33;20172;-87
2023/01/06 04:51:05;;;;;;;5.97;1.80;;;;;;;10.38;59.75;100273.91;4303691;33;20117;-87
2023/01/06 04:53:38;;;;;;;4.20;1.60;;;;;;;10.14;59.74;100277.87;4316886;33;20113;-87
2023/01/06 04:56:04;;;;;;;3.05;1.52;;;;;;;10.13;59.74;100273.56;4316514;33;20112;-87
2023/01/06 04:58:30;;;;;;;6.15;1.80;;;;;;;10.19;59.75;100283.00;4297876;33;20064;-86
2023/01/06 05:00:59;;;;;;;4.72;1.30;;;;;;;10.13;59.74;100296.12;4304949;33;20099;-88
2023/01/06 05:03:25;;;;;;;2.90;1.67;;;;;;;10.24;59.74;100308.94;4311372;33;20072;-87
2023/01/06 05:05:50;;;;;;;5.62;1.62;;;;;;;10.04;59.74;100312.78;4317488;33;20877;-87
2023/01/06 05:08:15;;;;;;;5.18;1.87;;;;;;;10.11;59.74;100310.91;4316518;33;20118;-87
2023/01/06 05:10:41;;;;;;;6.05;1.45;;;;;;;10.19;59.75;100322.03;4316559;33;20126;-88
2023/01/06 05:13:06;;;;;;;7.12;2.33;;;;;;;10.16;59.74;100324.66;4311784;33;20181;-87
2023/01/06 05:15:32;;;;;;;9.20;1.65;;;;;;;10.24;59.76;100328.00;4306969;33;20122;-88
2023/01/06 05:17:57;;;;;;;4.47;1.45;;;;;;;10.21;59.74;100330.69;4307196;33;20167;-87
2023/01/06 05:20:23;;;;;;;9.68;1.73;;;;;;;10.51;59.76;100333.50;4320496;33;20107;-87
2023/01/06 05:22:48;;;;;;;10.77;1.58;;;;;;;10.33;59.75;100330.41;4313382;33;20147;-87
2023/01/06 05:25:14;;;;;;;5.28;1.37;;;;;;;10.18;59.75;100337.66;4308796;33;20164;-88
2023/01/06 05:27:39;;;;;;;4.75;1.50;;;;;;;10.21;59.74;100333.28;4322401;33;20099;-88
2023/01/06 05:30:05;;;;;;;8.23;1.90;;;;;;;10.25;59.75;100329.72;4310998;33;20131;-85
2023/01/06 05:32:31;;;;;;;6.82;1.50;;;;;;;10.04;59.74;100333.59;4322038;33;20112;-88
2023/01/06 05:34:56;;;;;;;5.50;1.70;;;;;;;9.99;59.73;100334.59;4312107;33;20473;-87
2023/01/06 05:37:21;;;;;;;5.12;1.77;;;;;;;9.90;59.73;100345.16;4319229;33;20461;-86
2023/01/06 05:39:47;;;;;;;8.25;2.20;;;;;;;9.80;59.72;100347.94;4312986;33;20155;-87
2023/01/06 05:42:15;;;;;;;4.82;1.45;;;;;;;9.83;59.72;100345.28;4321342;33;20160;-87
2023/01/06 05:44:40;;;;;;;8.77;1.80;;;;;;;9.96;59.73;100342.47;4319082;33;20108;-85
2023/01/06 05:47:06;;;;;;;6.90;2.17;;;;;;;9.82;59.72;100361.78;4301126;33;20122;-87
2023/01/06 05:49:31;;;;;;;4.80;1.70;;;;;;;9.99;59.73;100365.78;4321525;33;20152;-86
2023/01/06 05:51:56;;;;;;;3.42;1.35;;;;;;;10.04;59.74;100372.59;4314897;33;20111;-88
2023/01/06 05:54:22;;;;;;;6.90;1.98;;;;;;;10.03;59.74;100368.28;4305937;33;20105;-87
2023/01/06 05:56:47;;;;;;;10.07;2.17;;;;;;;10.04;59.74;100384.75;4321405;33;20097;-88
2023/01/06 05:59:13;;;;;;;7.12;2.58;;;;;;;10.03;59.74;100385.66;4309663;33;20130;-87
2023/01/06 06:01:38;;;;;;;4.22;1.42;;;;;;;10.00;59.73;100388.31;4300706;33;20108;-86
2023/01/06 06:04:04;;;;;;;6.12;1.80;;;;;;;10.14;59.74;100396.69;4311871;33;20167;-87
2023/01/06 06:06:29;;;;;;;10.02;2.03;;;;;;;10.06;59.73;100394.25;4333183;33;20128;-87
2023/01/06 06:08:55;;;;;;;7.10;2.60;;;;;;;10.13;59.74;100389.78;4321073;33;20207;-87
2023/01/06 06:11:21;;;;;;;4.93;1.45;;;;;;;10.06;59.74;100399.44;4333214;33;20103;-86
2023/01/06 06:13:54;;;;;;;4.00;1.70;;;;;;;10.03;59.74;100399.50;4309231;33;20526;-88
2023/01/06 06:16:21;;;;;;;11.85;1.95;;;;;;;10.07;59.73;100403.75;4299876;33;20096;-88
2023/01/06 06:18:48;;;;;;;6.05;2.00;;;;;;;10.10;59.74;100395.91;4307238;33;20119;-88
2023/01/06 06:21:14;;;;;;;5.20;1.60;;;;;;;10.22;59.74;100402.66;4312633;33;20120;-88
2023/01/06 06:23:40;;;;;;;8.80;1.55;;;;;;;10.25;59.75;100391.31;4328062;33;20104;-87
2023/01/06 06:26:06;;;;;;;2.67;1.80;;;;;;;9.95;59.73;100400.56;4320232;33;20480;-87
2023/01/06 06:28:32;;;;;;;7.68;2.33;;;;;;;9.82;59.72;100400.78;4309946;33;20154;-87
2023/01/06 06:31:16;;;;;;;7.37;1.70;;;;;;;9.77;59.71;100406.94;4318507;33;20134;-87
2023/01/06 06:33:42;;;;;;;5.95;1.83;;;;;;;9.63;59.71;100403.72;4318110;33;20138;-87
2023/01/06 06:36:14;;;;;;;4.60;1.95;;;;;;;9.76;59.72;100413.87;4315389;33;20104;-88
2023/01/06 06:38:40;;;;;;;7.18;1.77;;;;;;;9.59;59.71;100412.47;4322230;33;20492;-88
2023/01/06 06:41:05;;;;;;;5.40;1.98;;;;;;;9.83;59.72;100428.47;4321276;33;20151;-87
2023/01/06 06:43:31;;;;;;;7.78;2.30;;;;;;;9.73;59.72;100426.09;4321719;33;20108;-87
2023/01/06 06:45:56;;;;;;;8.73;2.10;;;;;;;9.57;59.71;100425.50;4319269;33;20087;-88
2023/01/06 06:48:22;;;;;;;9.10;1.98;;;;;;;9.73;59.72;100432.16;4319294;33;20125;-88
2023/01/06 06:50:55;;;;;;;7.15;2.12;;;;;;;9.76;59.72;100426.87;4319154;33;20175;-88
2023/01/06 06:53:21;;;;;;;9.82;2.42;;;;;;;9.97;59.73;100420.44;4318979;33;20134;-88
2023/01/06 06:55:46;;;;;;;6.45;2.20;;;;;;;10.00;59.73;100424.72;4321396;33;20096;-88
2023/01/06 06:58:11;;;;;;;10.55;2.53;;;;;;;9.77;59.72;100430.34;4300089;33;20139;-87
2023/01/06 07:00:37;;;;;;;5.72;2.10;;;;;;;9.80;59.73;100427.69;4309351;33;20130;-88
2023/01/06 07:03:02;;;;;;;11.23;3.90;;;;;;;9.64;59.71;100436.63;4298611;33;20121;-87
2023/01/06 07:05:28;;;;;;;7.22;3.15;;;;;;;9.73;59.72;100437.34;4320060;33;20105;-87
2023/01/06 07:07:53;;;;;;;8.13;2.95;;;;;;;9.86;59.72;100445.78;4299649;33;20129;-87
2023/01/06 07:10:19;;;;;;;4.97;2.28;;;;;;;9.90;59.73;100446.56;4312532;33;20099;-88
2023/01/06 07:12:44;;;;;;;7.35;2.70;;;;;;;9.80;59.73;100454.53;4315004;33;20424;-87
2023/01/06 07:15:10;;;;;;;8.20;2.65;;;;;;;9.65;59.72;100452.19;4304719;33;20092;-86
2023/01/06 07:17:35;;;;;;;10.40;2.58;;;;;;;9.66;59.72;100455.66;4320190;33;20147;-87
2023/01/06 07:20:01;;;;;;;6.32;2.17;;;;;;;9.76;59.72;100462.44;4310747;33;20392;-86
2023/01/06 07:22:26;;;;;;;5.10;1.87;;;;;;;9.75;59.72;100471.13;4320827;33;20165;-88
2023/01/06 07:24:51;;;;;;;5.90;2.00;;;;;;;9.84;59.72;100476.16;4320410;33;20454;-87
2023/01/06 07:27:17;;;;;;;5.95;2.75;;;;;;;9.66;59.72;100484.25;4321002;33;20422;-88
2023/01/06 07:29:42;;;;;;;6.47;2.90;;;;;;;9.89;59.73;100471.72;4299331;33;20875;-87
2023/01/06 07:32:08;;;;;;;9.57;2.65;;;;;;;10.00;59.73;100472.41;4318642;33;20130;-88
2023/01/06 07:34:34;;;;;;;5.18;2.28;;;;;;;10.01;59.73;100473.25;4316956;33;20147;-87
2023/01/06 07:36:59;;;;;;;4.03;1.80;;;;;;;9.87;59.72;100467.44;4307213;33;20143;-86
2023/01/06 07:39:24;;;;;;;6.53;1.98;;;;;;;10.07;59.73;100468.78;4313880;33;20151;-86
2023/01/06 07:41:50;;;;;;;4.35;1.95;;;;;;;10.04;59.74;100465.38;4315966;33;20128;-86
2023/01/06 07:44:15;;;;;;;5.70;2.00;;;;;;;9.93;59.73;100467.31;4313567;33;20126;-85
2023/01/06 07:46:41;;;;;;;8.65;2.33;;;;;;;10.03;59.74;100459.34;4319956;33;20096;-87
2023/01/06 07:49:06;;;;;;;6.07;2.10;;;;;;;10.12;59.74;100461.75;4313514;33;20489;-84
2023/01/06 07:51:32;;;;;;;4.20;1.95;;;;;;;9.90;59.73;100468.22;4319859;33;20126;-85
2023/01/06 07:53:57;;;;;;;3.30;1.52;;;;;;;10.01;59.73;100460.25;4317125;33;20115;-88
2023/01/06 07:56:23;;;;;;;4.95;1.35;;;;;;;9.97;59.73;100469.84;4307413;33;20175;-86
2023/01/06 07:58:49;;;;;;;5.75;3.03;;;;;;;10.20;59.75;100471.19;4316911;33;20112;-85
2023/01/06 08:01:14;;;;;;;4.97;1.85;;;;;;;9.99;59.73;100472.44;4317295;33;20108;-87
2023/01/06 08:03:40;;;;;;;7.80;1.98;;;;;;;10.07;59.73;100476.59;4313072;33;20100;-86
2023/01/06 08:06:07;;;;;;;7.05;1.30;;;;;;;10.11;59.74;100473.03;4320150;33;20158;-87
2023/01/06 08:08:35;;;;;;;3.28;1.45;;;;;;;10.18;59.75;100473.81;4319347;33;20130;-86
2023/01/06 08:11:00;;;;;;;4.95;1.37;;;;;;;10.07;59.73;100466.19;4297622;33;20170;-85
2023/01/06 08:13:26;;;;;;;3.17;1.35;;;;;;;10.18;59.75;100468.59;4310032;33;20120;-86
2023/01/06 08:15:51;;;;;;;4.32;1.73;;;;;;;10.36;59.75;100462.19;4319403;33;20122;-87
2023/01/06 08:18:17;;;;;;;3.50;1.42;;;;;;;10.33;59.75;100455.31;4318214;33;20512;-87
2023/01/06 08:20:42;;;;;;;4.78;1.50;;;;;;;10.42;59.76;100443.87;4296905;33;20107;-83
2023/01/06 08:23:08;;;;;;;4.85;1.27;;;;;;;10.34;59.75;100435.34;4311345;33;20390;-86
2023/01/06 08:25:36;;;;;;;6.25;1.65;;;;;;;10.49;59.76;100429.84;4319341;33;20116;-87
2023/01/06 08:28:02;;;;;;;5.22;1.37;;;;;;;10.73;59.77;100431.06;4318243;33;20119;-86
2023/01/06 08:30:27;;;;;;;2.95;1.48;;;;;;;10.72;59.77;100424.16;4298197;33;20405;-85
2023/01/06 08:32:56;;;;;;;1.77;0.95;;;;;;;10.84;59.77;100434.28;4319664;33;20414;-85
2023/01/06 08:35:22;;;;;;;4.50;0.80;;;;;;;10.83;59.78;100426.50;4319375;33;20096;-86
2023/01/06 08:37:47;;;;;;;1.70;1.00;;;;;;;10.92;59.79;100429.78;4319352;33;20141;-84
2023/01/06 08:40:13;;;;;;;2.65;0.68;;;;;;;10.92;59.79;100431.53;4310777;33;20174;-85
2023/01/06 08:42:38;;;;;;;3.00;0.88;;;;;;;10.79;59.77;100428.31;4311725;33;20130;-87
2023/01/06 08:45:04;;;;;;;1.37;0.80;;;;;;;10.92;59.79;100421.09;4307521;33;20170;-87
2023/01/06 08:47:30;;;;;;;4.30;1.02;;;;;;;10.97;59.78;100421.84;4311035;33;20164;-86
2023/01/06 08:49:55;;;;;;;2.33;1.10;;;;;;;11.19;59.79;100415.25;4308524;33;20500;-86
2023/01/06 08:52:21;;;;;;;1.62;0.88;;;;;;;11.15;59.79;100421.44;4314094;33;20366;-85
2023/01/06 08:54:49;;;;;;;1.17;0.70;;;;;;;11.05;59.78;100428.59;4320427;33;20425;-86
2023/01/06 08:57:15;;;;;;;2.87;0.82;;;;;;;11.19;59.80;100436.09;4311154;33;20139;-86
2023/01/06 08:59:41;;;;;;;2.03;0.55;;;;;;;11.15;59.79;100442.28;4318151;33;20111;-87
2023/01/06 09:02:08;;;;;;;3.05;0.70;;;;;;;11.20;59.80;100450.84;4330782;33;20426;-86
2023/01/06 09:04:34;;;;;;;2.47;0.73;;;;;;;11.12;59.79;100452.78;4309864;33;20194;-87
2023/01/06 09:06:59;;;;;;;1.42;0.65;;;;;;;11.08;59.80;100466.75;4321713;33;20482;-86
2023/01/06 09:09:25;;;;;;;1.92;0.95;;;;;;;10.99;59.79;100467.81;4316812;33;20178;-87
2023/01/06 09:11:50;;;;;;;3.05;0.88;;;;;;;11.00;59.79;100471.28;4306030;33;20445;-88
2023/01/06 09:14:16;;;;;;;1.90;0.85;;;;;;;11.00;59.79;100468.66;4321712;33;20595;-88
2023/01/06 09:16:41;;;;;;;3.83;0.90;;;;;;;11.08;59.79;100475.41;4322231;33;20637;-88
2023/01/06 09:19:09;;;;;;;4.03;1.40;;;;;;;11.11;59.79;100478.84;4316517;33;20151;-87
2023/01/06 09:21:34;;;;;;;5.12;0.88;;;;;;;11.27;59.80;100475.00;4306208;33;20123;-88
2023/01/06 09:24:00;;;;;;;1.98;0.93;;;;;;;11.07;59.79;100478.06;4322374;33;20396;-88
2023/01/06 09:26:25;;;;;;;1.98;1.08;;;;;;;11.09;59.80;100478.88;4322184;33;20833;-88
2023/01/06 09:28:50;;;;;;;3.60;1.02;;;;;;;11.16;59.80;100477.87;4322103;33;20629;-88
2023/01/06 09:31:17;;;;;;;1.70;1.02;;;;;;;11.12;59.79;100483.16;4322059;33;20178;-88
2023/01/06 09:33:42;;;;;;;2.95;1.02;;;;;;;11.08;59.80;100485.84;4321509;33;20095;-88
2023/01/06 09:36:08;;;;;;;3.55;1.30;;;;;;;11.33;59.81;100478.31;4312914;33;20112;-86
2023/01/06 09:38:33;;;;;;;4.05;1.33;;;;;;;11.13;59.79;100485.75;4307281;33;20130;-88
2023/01/06 09:41:27;;;;;;;4.07;1.62;;;;;;;11.11;59.79;100481.44;4313086;33;20104;-88
2023/01/06 09:44:21;;;;;;;4.47;1.25;;;;;;;10.98;59.78;100480.87;4325795;33;20495;-88
2023/01/06 09:46:48;;;;;;;4.22;1.17;;;;;;;11.05;59.79;100480.69;4318016;33;20487;-87
2023/01/06 09:49:13;;;;;;;3.03;1.45;;;;;;;11.01;59.79;100480.81;4304493;33;20095;-87
2023/01/06 09:51:39;;;;;;;2.67;1.20;;;;;;;11.14;59.79;100474.44;4323821;33;20114;-88
2023/01/06 09:54:25;;;;;;;1.80;1.12;;;;;;;11.03;59.79;100481.63;4321383;33;20096;-88
2023/01/06 09:56:55;;;;;;;2.28;1.30;;;;;;;11.22;59.80;100471.66;4319049;33;20119;-88
2023/01/06 09:59:28;;;;;;;3.55;1.00;;;;;;;11.29;59.79;100466.25;4310854;33;20812;-87
2023/01/06 10:01:58;;;;;;;6.70;1.60;;;;;;;11.25;59.80;100476.78;4318764;33;20115;-88
2023/01/06 10:04:25;;;;;;;6.78;2.20;;;;;;;11.21;59.80;100473.41;4318585;33;20096;-87
2023/01/06 10:06:53;;;;;;;7.12;2.30;;;;;;;11.27;59.80;100475.84;4314894;33;20108;-88
2023/01/06 10:09:35;;;;;;;3.45;1.60;;;;;;;11.34;59.81;100472.19;4327178;33;20171;-88
2023/01/06 10:12:07;;;;;;;6.97;1.98;;;;;;;11.41;59.81;100474.69;4315649;33;20113;-85
2023/01/06 10:14:39;;;;;;;6.78;2.60;;;;;;;11.52;59.81;100468.31;4307202;33;20462;-87
2023/01/06 10:17:37;;;;;;;4.40;1.65;;;;;;;11.60;59.83;100468.13;4328194;33;20103;-87
2023/01/06 10:20:05;;;;;;;3.62;1.52;;;;;;;11.44;59.81;100465.03;4326669;33;20104;-88
2023/01/06 10:22:59;;;;;;;3.42;1.58;;;;;;;11.46;59.82;100467.59;4333396;33;20107;-87
2023/01/06 10:25:34;;;;;;;3.30;1.52;;;;;;;11.39;59.81;100466.91;4319482;33;20092;-87
2023/01/06 10:28:18;;;;;;;4.15;1.83;;;;;;;11.46;59.81;100462.41;4315435;33;20162;-87
2023/01/06 10:30:49;;;;;;;4.72;1.30;;;;;;;11.72;59.83;100464.34;4323455;33;20115;-85
2023/01/06 10:33:24;;;;;;;3.37;1.25;;;;;;;11.70;59.83;100459.19;4323462;33;20087;-87
2023/01/06 10:35:50;;;;;;;1.73;1.05;;;;;;;11.79;59.83;100455.50;4320891;33;20733;-87
2023/01/06 10:38:16;;;;;;;4.10;1.50;;;;;;;11.70;59.83;100453.97;4307865;33;20138;-85
2023/01/06 10:40:41;;;;;;;4.12;1.17;;;;;;;11.65;59.82;100454.09;4320975;33;20115;-88
2023/01/06 10:43:11;;;;;;;2.80;1.20;;;;;;;11.72;59.83;100460.00;4321019;33;20143;-88
2023/01/06 10:45:43;;;;;;;4.35;1.33;;;;;;;11.76;59.83;100456.41;4308879;33;20087;-86
2023/01/06 10:48:20;;;;;;;5.18;1.12;;;;;;;11.79;59.83;100461.56;4320114;33;20124;-85
2023/01/06 10:50:45;;;;;;;3.62;1.25;;;;;;;11.94;59.84;100460.34;4321479;33;20098;-87
2023/01/06 10:53:12;;;;;;;2.72;1.50;;;;;;;11.79;59.83;100452.91;4320931;33;20099;-87
2023/01/06 10:55:38;;;;;;;3.22;1.48;;;;;;;11.84;59.84;100449.28;4320025;33;20103;-86
2023/01/06 10:58:29;;;;;;;4.68;1.55;;;;;;;11.88;59.83;100452.69;4320711;33;20682;-86
2023/01/06 11:01:11;;;;;;;6.00;1.80;;;;;;;11.91;59.84;100449.97;4320945;33;20116;-86
2023/01/06 11:03:41;;;;;;;1.98;1.20;;;;;;;11.87;59.83;100450.97;4317811;33;20547;-85
2023/01/06 11:06:09;;;;;;;4.62;1.00;;;;;;;12.08;59.85;100454.75;4320743;33;20155;-88
2023/01/06 11:08:35;;;;;;;1.98;1.12;;;;;;;12.07;59.85;100442.62;4333179;33;20133;-88
2023/01/06 11:11:00;;;;;;;4.95;1.30;;;;;;;12.36;59.87;100444.41;4320793;33;20096;-85
2023/01/06 11:13:33;;;;;;;4.32;1.17;;;;;;;12.20;59.85;100441.38;4318484;33;20104;-88
2023/01/06 11:16:01;;;;;;;2.30;1.10;;;;;;;12.21;59.86;100443.06;4309187;33;20110;-88
2023/01/06 11:18:34;;;;;;;4.75;1.08;;;;;;;12.33;59.86;100442.75;4308381;33;20112;-87
2023/01/06 11:21:04;;;;;;;3.40;1.23;;;;;;;12.33;59.86;100440.13;4318267;33;20208;-86
2023/01/06 11:23:29;;;;;;;3.97;0.93;;;;;;;12.39;59.86;100437.34;4320607;33;20087;-87
2023/01/06 11:26:19;;;;;;;1.85;1.00;;;;;;;12.39;59.86;100437.34;4315087;33;20135;-87
2023/01/06 11:28:46;;;;;;;5.20;1.27;;;;;;;12.50;59.88;100443.09;4304821;33;20100;-88
2023/01/06 11:31:22;;;;;;;2.03;0.70;;;;;;;12.57;59.87;100435.97;4299512;33;20105;-87
2023/01/06 11:33:54;;;;;;;1.37;0.75;;;;;;;12.73;59.89;100433.75;4307963;33;20158;-87
2023/01/06 11:36:21;;;;;;;3.12;1.17;;;;;;;12.73;59.89;100431.97;4320925;33;20083;-87
2023/01/06 11:39:03;;;;;;;1.67;1.10;;;;;;;12.78;59.88;100431.88;4308328;33;20104;-88
2023/01/06 11:41:39;;;;;;;1.23;0.65;;;;;;;12.90;59.89;100414.03;4317777;33;20485;-87